EGCN/DSA METAR and TAF weather

Enter ICAO airport designator
Station Type Date Time Source
EGCN METAR 2022/05/26 03:50 UTC NOAA

EGCN 260350Z 23008KT 9999 FEW028 11/08 Q1017


Station Type Date Time Source
EGCN Decoded METAR 2022/05/26 03:50 UTC NOAA

Station name not available
May 25, 2022 - 11:50 PM EDT / 2022.05.26 0350 UTC
Wind: from the SW (230 degrees) at 9 MPH (8 KT):0
Visibility: greater than 7 mile(s):0
Sky conditions: mostly clear
Temperature: 51 F (11 C)
Dew Point: 46 F (8 C)
Relative Humidity: 81%
Pressure (altimeter): 30.03 in. Hg (1017 hPa)
ob: EGCN 260350Z 23008KT 9999 FEW028 11/08 Q1017
cycle: 4

Station Type Date Time Source
EGCN TAF 2022/05/25 18:00 UTC NOAA

TAF EGCN 251658Z 2518/2618 27015KT 9999 SCT035
BECMG 2518/2521 24005KT
TEMPO 2607/2613 8000 -RA PROB30
TEMPO 2607/2613 4000 RADZ BKN014
BECMG 2609/2612 26016G26KT PROB40
TEMPO 2613/2617 7000 SHRA

Example: see airport list